sensor_id;sensor_type;location;lat;lon;timestamp;pressure;altitude;pressure_sealevel;temperature;humidity
46836;BME280;32573;51.290;6.926;2022-12-11T00:01:20;99750.16;;;0.58;100.00
46836;BME280;32573;51.290;6.926;2022-12-11T00:03:48;99753.59;;;0.59;100.00
46836;BME280;32573;51.290;6.926;2022-12-11T00:06:19;99753.69;;;0.60;100.00
46836;BME280;32573;51.290;6.926;2022-12-11T00:08:50;99755.47;;;0.61;100.00
46836;BME280;32573;51.290;6.926;2022-12-11T00:11:19;99750.44;;;0.63;100.00
46836;BME280;32573;51.290;6.926;2022-12-11T00:13:49;99749.53;;;0.62;100.00
46836;BME280;32573;51.290;6.926;2022-12-11T00:16:17;99756.47;;;0.63;100.00
46836;BME280;32573;51.290;6.926;2022-12-11T00:18:53;99752.19;;;0.64;100.00
46836;BME280;32573;51.290;6.926;2022-12-11T00:21:21;99748.84;;;0.65;100.00
46836;BME280;32573;51.290;6.926;2022-12-11T00:23:49;99747.03;;;0.64;100.00
46836;BME280;32573;51.290;6.926;2022-12-11T00:26:18;99752.00;;;0.61;100.00
46836;BME280;32573;51.290;6.926;2022-12-11T00:28:46;99761.44;;;0.60;100.00
46836;BME280;32573;51.290;6.926;2022-12-11T00:31:19;99760.44;;;0.58;100.00
46836;BME280;32573;51.290;6.926;2022-12-11T00:33:48;99758.63;;;0.57;100.00
46836;BME280;32573;51.290;6.926;2022-12-11T00:36:19;99760.44;;;0.58;100.00
46836;BME280;32573;51.290;6.926;2022-12-11T00:38:48;99759.63;;;0.59;100.00
46836;BME280;32573;51.290;6.926;2022-12-11T00:41:17;99761.44;;;0.60;100.00
46836;BME280;32573;51.290;6.926;2022-12-11T00:43:47;99759.84;;;0.62;100.00
46836;BME280;32573;51.290;6.926;2022-12-11T00:46:17;99759.03;;;0.63;100.00
46836;BME280;32573;51.290;6.926;2022-12-11T00:48:45;99758.22;;;0.64;100.00
46836;BME280;32573;51.290;6.926;2022-12-11T00:51:16;99749.72;;;0.66;100.00
46836;BME280;32573;51.290;6.926;2022-12-11T00:53:45;99753.28;;;0.68;100.00
46836;BME280;32573;51.290;6.926;2022-12-11T00:56:15;99753.47;;;0.71;100.00
46836;BME280;32573;51.290;6.926;2022-12-11T00:58:44;99748.31;;;0.71;100.00
46836;BME280;32573;51.290;6.926;2022-12-11T01:01:15;99746.50;;;0.70;100.00
46836;BME280;32573;51.290;6.926;2022-12-11T01:03:45;99743.06;;;0.69;100.00
46836;BME280;32573;51.290;6.926;2022-12-11T01:06:16;99742.16;;;0.69;100.00
46836;BME280;32573;51.290;6.926;2022-12-11T01:08:46;99749.91;;;0.69;100.00
46836;BME280;32573;51.290;6.926;2022-12-11T01:11:15;99739.41;;;0.66;100.00
46836;BME280;32573;51.290;6.926;2022-12-11T01:13:43;99738.53;;;0.65;100.00
46836;BME280;32573;51.290;6.926;2022-12-11T01:16:14;99734.28;;;0.66;100.00
46836;BME280;32573;51.290;6.926;2022-12-11T01:18:43;99730.00;;;0.66;100.00
46836;BME280;32573;51.290;6.926;2022-12-11T01:21:12;99737.84;;;0.68;100.00
46836;BME280;32573;51.290;6.926;2022-12-11T01:23:41;99732.69;;;0.68;100.00
46836;BME280;32573;51.290;6.926;2022-12-11T01:26:11;99736.22;;;0.70;100.00
46836;BME280;32573;51.290;6.926;2022-12-11T01:28:40;99737.91;;;0.69;100.00
46836;BME280;32573;51.290;6.926;2022-12-11T01:31:09;99751.66;;;0.70;100.00
46836;BME280;32573;51.290;6.926;2022-12-11T01:33:39;99769.50;;;0.67;100.00
46836;BME280;32573;51.290;6.926;2022-12-11T01:36:10;99745.56;;;0.68;100.00
46836;BME280;32573;51.290;6.926;2022-12-11T01:38:40;99742.88;;;0.66;100.00
46836;BME280;32573;51.290;6.926;2022-12-11T01:41:09;99743.69;;;0.65;100.00
46836;BME280;32573;51.290;6.926;2022-12-11T01:43:59;99741.88;;;0.64;100.00
46836;BME280;32573;51.290;6.926;2022-12-11T01:46:28;99741.88;;;0.64;100.00
46836;BME280;32573;51.290;6.926;2022-12-11T01:48:58;99740.19;;;0.64;100.00
46836;BME280;32573;51.290;6.926;2022-12-11T01:51:28;99740.19;;;0.64;100.00
46836;BME280;32573;51.290;6.926;2022-12-11T01:54:01;99732.47;;;0.64;100.00
46836;BME280;32573;51.290;6.926;2022-12-11T01:56:33;99737.63;;;0.64;100.00
46836;BME280;32573;51.290;6.926;2022-12-11T01:59:05;99729.91;;;0.64;100.00
46836;BME280;32573;51.290;6.926;2022-12-11T02:01:39;99739.25;;;0.62;100.00
46836;BME280;32573;51.290;6.926;2022-12-11T02:04:09;99728.94;;;0.62;100.00
46836;BME280;32573;51.290;6.926;2022-12-11T02:06:41;99728.94;;;0.62;100.00
46836;BME280;32573;51.290;6.926;2022-12-11T02:09:13;99731.41;;;0.61;100.00
46836;BME280;32573;51.290;6.926;2022-12-11T02:11:51;99723.78;;;0.62;100.00
46836;BME280;32573;51.290;6.926;2022-12-11T02:14:27;99732.47;;;0.64;100.00
46836;BME280;32573;51.290;6.926;2022-12-11T02:17:00;99730.72;;;0.63;100.00
46836;BME280;32573;51.290;6.926;2022-12-11T02:19:47;99725.56;;;0.63;100.00
46836;BME280;32573;51.290;6.926;2022-12-11T02:22:26;99729.91;;;0.64;100.00
46836;BME280;32573;51.290;6.926;2022-12-11T02:25:08;99729.13;;;0.66;100.00
46836;BME280;32573;51.290;6.926;2022-12-11T02:27:44;99726.63;;;0.67;100.00
46836;BME280;32573;51.290;6.926;2022-12-11T02:30:16;99722.38;;;0.68;100.00
46836;BME280;32573;51.290;6.926;2022-12-11T02:32:47;99717.22;;;0.68;100.00
46836;BME280;32573;51.290;6.926;2022-12-11T02:35:21;99717.13;;;0.66;100.00
46836;BME280;32573;51.290;6.926;2022-12-11T02:37:58;99724.75;;;0.64;100.00
46836;BME280;32573;51.290;6.926;2022-12-11T02:40:31;99717.84;;;0.63;100.00
46836;BME280;32573;51.290;6.926;2022-12-11T02:43:03;99714.44;;;0.64;100.00
46836;BME280;32573;51.290;6.926;2022-12-11T02:45:36;99714.44;;;0.64;100.00
46836;BME280;32573;51.290;6.926;2022-12-11T02:48:08;99713.66;;;0.66;100.00
46836;BME280;32573;51.290;6.926;2022-12-11T02:50:41;99709.41;;;0.66;100.00
46836;BME280;32573;51.290;6.926;2022-12-11T02:53:12;99709.41;;;0.66;100.00
46836;BME280;32573;51.290;6.926;2022-12-11T02:55:44;99707.81;;;0.68;100.00
46836;BME280;32573;51.290;6.926;2022-12-11T02:58:15;99712.09;;;0.68;100.00
46836;BME280;32573;51.290;6.926;2022-12-11T03:00:46;99707.72;;;0.67;100.00
46836;BME280;32573;51.290;6.926;2022-12-11T03:03:15;99706.94;;;0.68;100.00
46836;BME280;32573;51.290;6.926;2022-12-11T03:05:43;99701.78;;;0.68;100.00
46836;BME280;32573;51.290;6.926;2022-12-11T03:08:12;99700.16;;;0.70;100.00
46836;BME280;32573;51.290;6.926;2022-12-11T03:10:44;99710.56;;;0.71;100.00
46836;BME280;32573;51.290;6.926;2022-12-11T03:13:14;99703.72;;;0.72;100.00
46836;BME280;32573;51.290;6.926;2022-12-11T03:15:56;99704.59;;;0.72;100.00
46836;BME280;32573;51.290;6.926;2022-12-11T03:18:29;99700.38;;;0.73;100.00
46836;BME280;32573;51.290;6.926;2022-12-11T03:21:04;99698.75;;;0.75;100.00
46836;BME280;32573;51.290;6.926;2022-12-11T03:23:39;99697.88;;;0.74;100.00
46836;BME280;32573;51.290;6.926;2022-12-11T03:26:12;99693.69;;;0.76;100.00
46836;BME280;32573;51.290;6.926;2022-12-11T03:28:44;99702.41;;;0.78;100.00
46836;BME280;32573;51.290;6.926;2022-12-11T03:31:20;99704.16;;;0.79;100.00
46836;BME280;32573;51.290;6.926;2022-12-11T03:33:53;99703.38;;;0.80;100.00
46836;BME280;32573;51.290;6.926;2022-12-11T03:36:26;99704.28;;;0.81;100.00
46836;BME280;32573;51.290;6.926;2022-12-11T03:39:00;99707.63;;;0.80;100.00
46836;BME280;32573;51.290;6.926;2022-12-11T03:41:30;99707.63;;;0.80;100.00
46836;BME280;32573;51.290;6.926;2022-12-11T03:44:00;99708.53;;;0.80;100.00
46836;BME280;32573;51.290;6.926;2022-12-11T03:46:33;99705.16;;;0.81;100.00
46836;BME280;32573;51.290;6.926;2022-12-11T03:49:06;99712.09;;;0.82;100.00
46836;BME280;32573;51.290;6.926;2022-12-11T03:51:37;99707.84;;;0.83;100.00
46836;BME280;32573;51.290;6.926;2022-12-11T03:54:06;99708.59;;;0.82;100.00
46836;BME280;32573;51.290;6.926;2022-12-11T03:56:37;99705.25;;;0.83;100.00
46836;BME280;32573;51.290;6.926;2022-12-11T03:59:05;99707.84;;;0.83;100.00
46836;BME280;32573;51.290;6.926;2022-12-11T04:01:35;99707.84;;;0.83;100.00
46836;BME280;32573;51.290;6.926;2022-12-11T04:04:04;99697.53;;;0.83;100.00
46836;BME280;32573;51.290;6.926;2022-12-11T04:06:33;99700.19;;;0.84;100.00
46836;BME280;32573;51.290;6.926;2022-12-11T04:09:01;99690.78;;;0.85;100.00
46836;BME280;32573;51.290;6.926;2022-12-11T04:11:29;99690.78;;;0.85;100.00
46836;BME280;32573;51.290;6.926;2022-12-11T04:14:07;99684.81;;;0.86;100.00
46836;BME280;32573;51.290;6.926;2022-12-11T04:16:56;99695.22;;;0.88;100.00
46836;BME280;32573;51.290;6.926;2022-12-11T04:19:30;99690.16;;;0.89;100.00
46836;BME280;32573;51.290;6.926;2022-12-11T04:22:16;99687.56;;;0.89;100.00
46836;BME280;32573;51.290;6.926;2022-12-11T04:25:06;99685.97;;;0.91;100.00
46836;BME280;32573;51.290;6.926;2022-12-11T04:27:35;99680.81;;;0.91;100.00
46836;BME280;32573;51.290;6.926;2022-12-11T04:30:19;99681.72;;;0.92;100.00
46836;BME280;32573;51.290;6.926;2022-12-11T04:32:50;99686.97;;;0.93;100.00
46836;BME280;32573;51.290;6.926;2022-12-11T04:35:19;99683.56;;;0.94;100.00
46836;BME280;32573;51.290;6.926;2022-12-11T04:37:48;99679.22;;;0.93;100.00
46836;BME280;32573;51.290;6.926;2022-12-11T04:40:17;99680.13;;;0.94;100.00
46836;BME280;32573;51.290;6.926;2022-12-11T04:42:46;99677.63;;;0.95;100.00
46836;BME280;32573;51.290;6.926;2022-12-11T04:45:15;99674.25;;;0.96;100.00
46836;BME280;32573;51.290;6.926;2022-12-11T04:47:44;99673.44;;;0.97;100.00
46836;BME280;32573;51.290;6.926;2022-12-11T04:50:14;99659.78;;;0.98;100.00
46836;BME280;32573;51.290;6.926;2022-12-11T04:52:43;99667.56;;;1.00;100.00
46836;BME280;32573;51.290;6.926;2022-12-11T04:55:11;99672.03;;;1.02;100.00
46836;BME280;32573;51.290;6.926;2022-12-11T04:57:40;99667.78;;;1.03;100.00
46836;BME280;32573;51.290;6.926;2022-12-11T05:00:10;99665.09;;;1.01;100.00
46836;BME280;32573;51.290;6.926;2022-12-11T05:02:40;99657.53;;;1.04;100.00
46836;BME280;32573;51.290;6.926;2022-12-11T05:05:09;99664.47;;;1.05;100.00
46836;BME280;32573;51.290;6.926;2022-12-11T05:07:40;99661.09;;;1.06;100.00
46836;BME280;32573;51.290;6.926;2022-12-11T05:10:08;99668.03;;;1.07;100.00
46836;BME280;32573;51.290;6.926;2022-12-11T05:12:37;99673.97;;;1.06;100.00
46836;BME280;32573;51.290;6.926;2022-12-11T05:15:06;99674.84;;;1.07;100.00
46836;BME280;32573;51.290;6.926;2022-12-11T05:17:36;99678.16;;;1.04;100.00
46836;BME280;32573;51.290;6.926;2022-12-11T05:20:05;99674.78;;;1.05;100.00
46836;BME280;32573;51.290;6.926;2022-12-11T05:22:34;99673.81;;;1.03;100.00
46836;BME280;32573;51.290;6.926;2022-12-11T05:25:05;99676.38;;;1.03;100.00
46836;BME280;32573;51.290;6.926;2022-12-11T05:27:33;99671.22;;;1.03;100.00
46836;BME280;32573;51.290;6.926;2022-12-11T05:30:03;99670.41;;;1.04;100.00
46836;BME280;32573;51.290;6.926;2022-12-11T05:32:31;99671.22;;;1.03;100.00
46836;BME280;32573;51.290;6.926;2022-12-11T05:35:00;99669.63;;;1.05;100.00
46836;BME280;32573;51.290;6.926;2022-12-11T05:37:28;99673.00;;;1.04;100.00
46836;BME280;32573;51.290;6.926;2022-12-11T05:39:56;99672.22;;;1.05;100.00
46836;BME280;32573;51.290;6.926;2022-12-11T05:42:26;99663.59;;;1.05;100.00
46836;BME280;32573;51.290;6.926;2022-12-11T05:44:55;99662.69;;;1.04;100.00
46836;BME280;32573;51.290;6.926;2022-12-11T05:47:23;99661.03;;;1.05;100.00
46836;BME280;32573;51.290;6.926;2022-12-11T05:49:52;99656.75;;;1.05;100.00
46836;BME280;32573;51.290;6.926;2022-12-11T05:52:20;99659.31;;;1.05;100.00
46836;BME280;32573;51.290;6.926;2022-12-11T05:54:49;99661.09;;;1.06;100.00
46836;BME280;32573;51.290;6.926;2022-12-11T05:57:17;99649.91;;;1.06;100.00
46836;BME280;32573;51.290;6.926;2022-12-11T05:59:47;99652.47;;;1.06;100.00
46836;BME280;32573;51.290;6.926;2022-12-11T06:02:15;99647.31;;;1.06;100.00
46836;BME280;32573;51.290;6.926;2022-12-11T06:04:43;99654.25;;;1.07;100.00
46836;BME280;32573;51.290;6.926;2022-12-11T06:07:12;99659.41;;;1.07;100.00
46836;BME280;32573;51.290;6.926;2022-12-11T06:09:40;99652.59;;;1.07;100.00
46836;BME280;32573;51.290;6.926;2022-12-11T06:12:09;99656.81;;;1.07;100.00
46836;BME280;32573;51.290;6.926;2022-12-11T06:14:37;99650.78;;;1.06;100.00
46836;BME280;32573;51.290;6.926;2022-12-11T06:17:08;99656.75;;;1.05;100.00
46836;BME280;32573;51.290;6.926;2022-12-11T06:19:36;99654.19;;;1.05;100.00
46836;BME280;32573;51.290;6.926;2022-12-11T06:22:05;99653.28;;;1.05;100.00
46836;BME280;32573;51.290;6.926;2022-12-11T06:24:33;99649.75;;;1.03;100.00
46836;BME280;32573;51.290;6.926;2022-12-11T06:27:02;99651.44;;;1.02;100.00
46836;BME280;32573;51.290;6.926;2022-12-11T06:29:30;99653.09;;;1.02;100.00
46836;BME280;32573;51.290;6.926;2022-12-11T06:31:59;99658.25;;;1.02;100.00
46836;BME280;32573;51.290;6.926;2022-12-11T06:34:28;99653.09;;;1.02;100.00
46836;BME280;32573;51.290;6.926;2022-12-11T06:36:57;99652.22;;;1.01;100.00
46836;BME280;32573;51.290;6.926;2022-12-11T06:39:25;99652.22;;;1.01;100.00
46836;BME280;32573;51.290;6.926;2022-12-11T06:41:54;99652.22;;;1.01;100.00
46836;BME280;32573;51.290;6.926;2022-12-11T06:44:22;99648.84;;;1.02;100.00
46836;BME280;32573;51.290;6.926;2022-12-11T06:46:50;99650.44;;;1.00;100.00
46836;BME280;32573;51.290;6.926;2022-12-11T06:49:19;99651.22;;;0.99;100.00
46836;BME280;32573;51.290;6.926;2022-12-11T06:51:49;99653.81;;;0.99;100.00
46836;BME280;32573;51.290;6.926;2022-12-11T06:54:17;99659.78;;;0.98;100.00
46836;BME280;32573;51.290;6.926;2022-12-11T06:56:45;99654.63;;;0.98;100.00
46836;BME280;32573;51.290;6.926;2022-12-11T06:59:14;99657.97;;;0.97;100.00
46836;BME280;32573;51.290;6.926;2022-12-11T07:01:42;99654.63;;;0.98;100.00
46836;BME280;32573;51.290;6.926;2022-12-11T07:04:10;99658.06;;;0.99;100.00
46836;BME280;32573;51.290;6.926;2022-12-11T07:06:39;99652.94;;;0.99;100.00
46836;BME280;32573;51.290;6.926;2022-12-11T07:09:10;99651.22;;;0.99;100.00
46836;BME280;32573;51.290;6.926;2022-12-11T07:11:39;99653.81;;;0.99;100.00
46836;BME280;32573;51.290;6.926;2022-12-11T07:14:07;99656.50;;;1.01;100.00
46836;BME280;32573;51.290;6.926;2022-12-11T07:16:36;99656.38;;;0.99;100.00
46836;BME280;32573;51.290;6.926;2022-12-11T07:19:05;99665.00;;;1.00;100.00
46836;BME280;32573;51.290;6.926;2022-12-11T07:21:34;99663.34;;;1.00;100.00
46836;BME280;32573;51.290;6.926;2022-12-11T07:24:02;99665.00;;;1.00;100.00
46836;BME280;32573;51.290;6.926;2022-12-11T07:26:32;99668.47;;;1.00;100.00
46836;BME280;32573;51.290;6.926;2022-12-11T07:29:00;99673.63;;;1.00;100.00
46836;BME280;32573;51.290;6.926;2022-12-11T07:31:29;99663.34;;;1.00;100.00
46836;BME280;32573;51.290;6.926;2022-12-11T07:33:59;99663.41;;;1.02;100.00
46836;BME280;32573;51.290;6.926;2022-12-11T07:36:29;99663.41;;;1.02;100.00
46836;BME280;32573;51.290;6.926;2022-12-11T07:38:59;99667.66;;;1.01;100.00
46836;BME280;32573;51.290;6.926;2022-12-11T07:41:27;99672.81;;;1.01;100.00
46836;BME280;32573;51.290;6.926;2022-12-11T07:43:59;99671.94;;;1.01;100.00
46836;BME280;32573;51.290;6.926;2022-12-11T07:46:30;99677.19;;;1.02;100.00
46836;BME280;32573;51.290;6.926;2022-12-11T07:48:59;99673.72;;;1.02;100.00
46836;BME280;32573;51.290;6.926;2022-12-11T07:51:30;99677.97;;;1.01;100.00
46836;BME280;32573;51.290;6.926;2022-12-11T07:53:59;99674.53;;;1.01;100.00
46836;BME280;32573;51.290;6.926;2022-12-11T07:56:29;99676.22;;;1.00;100.00
46836;BME280;32573;51.290;6.926;2022-12-11T07:58:59;99676.22;;;1.00;100.00
46836;BME280;32573;51.290;6.926;2022-12-11T08:01:32;99676.22;;;1.00;100.00
46836;BME280;32573;51.290;6.926;2022-12-11T08:04:03;99678.84;;;1.02;100.00
46836;BME280;32573;51.290;6.926;2022-12-11T08:06:33;99677.97;;;1.01;100.00
46836;BME280;32573;51.290;6.926;2022-12-11T08:09:04;99677.97;;;1.01;100.00
46836;BME280;32573;51.290;6.926;2022-12-11T08:11:33;99677.97;;;1.01;100.00
46836;BME280;32573;51.290;6.926;2022-12-11T08:14:04;99672.03;;;1.02;100.00
46836;BME280;32573;51.290;6.926;2022-12-11T08:16:34;99673.72;;;1.02;100.00
46836;BME280;32573;51.290;6.926;2022-12-11T08:19:04;99669.47;;;1.02;100.00
46836;BME280;32573;51.290;6.926;2022-12-11T08:21:32;99664.31;;;1.02;100.00
46836;BME280;32573;51.290;6.926;2022-12-11T08:24:03;99667.78;;;1.03;100.00
46836;BME280;32573;51.290;6.926;2022-12-11T08:26:31;99661.75;;;1.02;100.00
46836;BME280;32573;51.290;6.926;2022-12-11T08:29:04;99677.25;;;1.04;100.00
46836;BME280;32573;51.290;6.926;2022-12-11T08:31:32;99668.75;;;1.05;100.00
46836;BME280;32573;51.290;6.926;2022-12-11T08:34:01;99668.75;;;1.05;100.00
46836;BME280;32573;51.290;6.926;2022-12-11T08:36:29;99675.66;;;1.06;100.00
46836;BME280;32573;51.290;6.926;2022-12-11T08:38:58;99668.03;;;1.07;100.00
46836;BME280;32573;51.290;6.926;2022-12-11T08:41:28;99673.19;;;1.07;100.00
46836;BME280;32573;51.290;6.926;2022-12-11T08:43:57;99674.97;;;1.08;100.00
46836;BME280;32573;51.290;6.926;2022-12-11T08:46:31;99674.97;;;1.08;100.00
46836;BME280;32573;51.290;6.926;2022-12-11T08:49:01;99676.72;;;1.10;100.00
46836;BME280;32573;51.290;6.926;2022-12-11T08:51:31;99666.41;;;1.10;100.00
46836;BME280;32573;51.290;6.926;2022-12-11T08:54:00;99663.84;;;1.10;100.00
46836;BME280;32573;51.290;6.926;2022-12-11T08:56:29;99669.81;;;1.08;100.00
46836;BME280;32573;51.290;6.926;2022-12-11T08:58:58;99666.34;;;1.08;100.00
46836;BME280;32573;51.290;6.926;2022-12-11T09:01:28;99663.66;;;1.06;100.00
46836;BME280;32573;51.290;6.926;2022-12-11T09:03:58;99669.63;;;1.05;100.00
46836;BME280;32573;51.290;6.926;2022-12-11T09:06:27;99668.81;;;1.06;100.00
46836;BME280;32573;51.290;6.926;2022-12-11T09:08:58;99668.81;;;1.06;100.00
46836;BME280;32573;51.290;6.926;2022-12-11T09:11:29;99668.03;;;1.07;100.00
46836;BME280;32573;51.290;6.926;2022-12-11T09:13:58;99654.25;;;1.07;100.00
46836;BME280;32573;51.290;6.926;2022-12-11T09:16:34;99658.69;;;1.10;100.00
46836;BME280;32573;51.290;6.926;2022-12-11T09:19:10;99665.63;;;1.11;100.00
46836;BME280;32573;51.290;6.926;2022-12-11T09:21:39;99667.31;;;1.10;100.00
46836;BME280;32573;51.290;6.926;2022-12-11T09:24:09;99667.41;;;1.12;100.00
46836;BME280;32573;51.290;6.926;2022-12-11T09:26:39;99665.69;;;1.12;100.00
46836;BME280;32573;51.290;6.926;2022-12-11T09:29:09;99663.94;;;1.11;100.00
46836;BME280;32573;51.290;6.926;2022-12-11T09:31:37;99667.41;;;1.12;100.00
46836;BME280;32573;51.290;6.926;2022-12-11T09:34:10;99664.03;;;1.13;100.00
46836;BME280;32573;51.290;6.926;2022-12-11T09:36:43;99671.75;;;1.13;100.00
46836;BME280;32573;51.290;6.926;2022-12-11T09:39:15;99675.28;;;1.15;100.00
46836;BME280;32573;51.290;6.926;2022-12-11T09:41:48;99671.94;;;1.16;100.00
46836;BME280;32573;51.290;6.926;2022-12-11T09:44:30;99669.34;;;1.16;100.00
46836;BME280;32573;51.290;6.926;2022-12-11T09:47:04;99664.97;;;1.15;100.00
46836;BME280;32573;51.290;6.926;2022-12-11T09:49:43;99663.38;;;1.17;100.00
46836;BME280;32573;51.290;6.926;2022-12-11T09:52:15;99665.19;;;1.18;100.00
46836;BME280;32573;51.290;6.926;2022-12-11T09:54:51;99667.75;;;1.18;100.00
46836;BME280;32573;51.290;6.926;2022-12-11T09:57:31;99664.38;;;1.19;100.00
46836;BME280;32573;51.290;6.926;2022-12-11T10:00:12;99665.19;;;1.18;100.00
46836;BME280;32573;51.290;6.926;2022-12-11T10:02:57;99670.34;;;1.18;100.00
46836;BME280;32573;51.290;6.926;2022-12-11T10:05:36;99663.56;;;1.20;100.00
46836;BME280;32573;51.290;6.926;2022-12-11T10:08:14;99661.97;;;1.22;100.00
46836;BME280;32573;51.290;6.926;2022-12-11T10:10:50;99658.59;;;1.23;100.00
46836;BME280;32573;51.290;6.926;2022-12-11T10:13:26;99661.19;;;1.23;100.00
46836;BME280;32573;51.290;6.926;2022-12-11T10:16:03;99666.41;;;1.24;100.00
46836;BME280;32573;51.290;6.926;2022-12-11T10:18:32;99658.75;;;1.26;100.00
46836;BME280;32573;51.290;6.926;2022-12-11T10:21:03;99654.50;;;1.26;100.00
46836;BME280;32573;51.290;6.926;2022-12-11T10:23:37;99658.94;;;1.29;100.00
46836;BME280;32573;51.290;6.926;2022-12-11T10:26:11;99651.19;;;1.29;100.00
46836;BME280;32573;51.290;6.926;2022-12-11T10:28:42;99650.41;;;1.30;100.00
46836;BME280;32573;51.290;6.926;2022-12-11T10:31:15;99647.91;;;1.32;100.00
46836;BME280;32573;51.290;6.926;2022-12-11T10:33:53;99640.25;;;1.33;100.00
46836;BME280;32573;51.290;6.926;2022-12-11T10:36:27;99641.88;;;1.31;100.00
46836;BME280;32573;51.290;6.926;2022-12-11T10:38:57;99641.97;;;1.33;100.00
46836;BME280;32573;51.290;6.926;2022-12-11T10:41:34;99642.03;;;1.34;100.00
46836;BME280;32573;51.290;6.926;2022-12-11T10:44:14;99631.72;;;1.34;100.00
46836;BME280;32573;51.290;6.926;2022-12-11T10:46:44;99624.09;;;1.36;100.00
46836;BME280;32573;51.290;6.926;2022-12-11T10:49:21;99623.25;;;1.37;100.00
46836;BME280;32573;51.290;6.926;2022-12-11T10:51:52;99624.16;;;1.37;100.00
46836;BME280;32573;51.290;6.926;2022-12-11T10:54:31;99619.00;;;1.37;100.00
46836;BME280;32573;51.290;6.926;2022-12-11T10:57:01;99624.97;;;1.36;100.00
46836;BME280;32573;51.290;6.926;2022-12-11T10:59:34;99625.06;;;1.38;100.00
46836;BME280;32573;51.290;6.926;2022-12-11T11:02:06;99616.50;;;1.39;100.00
46836;BME280;32573;51.290;6.926;2022-12-11T11:04:44;99614.81;;;1.39;100.00
46836;BME280;32573;51.290;6.926;2022-12-11T11:07:18;99614.81;;;1.39;100.00
46836;BME280;32573;51.290;6.926;2022-12-11T11:09:47;99611.25;;;1.37;100.00
46836;BME280;32573;51.290;6.926;2022-12-11T11:12:20;99615.47;;;1.35;100.00
46836;BME280;32573;51.290;6.926;2022-12-11T11:15:00;99612.88;;;1.35;100.00
46836;BME280;32573;51.290;6.926;2022-12-11T11:17:30;99614.66;;;1.36;100.00
46836;BME280;32573;51.290;6.926;2022-12-11T11:20:11;99616.34;;;1.36;100.00
46836;BME280;32573;51.290;6.926;2022-12-11T11:22:44;99619.00;;;1.37;100.00
46836;BME280;32573;51.290;6.926;2022-12-11T11:25:18;99618.09;;;1.37;100.00
46836;BME280;32573;51.290;6.926;2022-12-11T11:27:49;99612.88;;;1.35;100.00
46836;BME280;32573;51.290;6.926;2022-12-11T11:30:21;99605.94;;;1.34;100.00
46836;BME280;32573;51.290;6.926;2022-12-11T11:32:51;99600.78;;;1.34;100.00
46836;BME280;32573;51.290;6.926;2022-12-11T11:35:23;99600.88;;;1.36;100.00
46836;BME280;32573;51.290;6.926;2022-12-11T11:37:59;99594.91;;;1.37;100.00
46836;BME280;32573;51.290;6.926;2022-12-11T11:40:32;99592.44;;;1.38;100.00
46836;BME280;32573;51.290;6.926;2022-12-11T11:43:06;99591.81;;;1.42;100.00
46836;BME280;32573;51.290;6.926;2022-12-11T11:45:43;99593.56;;;1.43;100.00
46836;BME280;32573;51.290;6.926;2022-12-11T11:48:26;99588.56;;;1.46;100.00
46836;BME280;32573;51.290;6.926;2022-12-11T11:50:57;99585.28;;;1.49;100.00
46836;BME280;32573;51.290;6.926;2022-12-11T11:53:30;99589.69;;;1.51;100.00
46836;BME280;32573;51.290;6.926;2022-12-11T11:56:03;99586.34;;;1.53;100.00
46836;BME280;32573;51.290;6.926;2022-12-11T11:58:38;99583.97;;;1.57;100.00
46836;BME280;32573;51.290;6.926;2022-12-11T12:01:11;99581.34;;;1.56;100.00
46836;BME280;32573;51.290;6.926;2022-12-11T12:03:40;99587.38;;;1.56;100.00
46836;BME280;32573;51.290;6.926;2022-12-11T12:06:16;99578.81;;;1.57;100.00
46836;BME280;32573;51.290;6.926;2022-12-11T12:08:53;99581.50;;;1.59;100.00
46836;BME280;32573;51.290;6.926;2022-12-11T12:11:30;99581.50;;;1.59;100.00
46836;BME280;32573;51.290;6.926;2022-12-11T12:14:09;99583.25;;;1.60;100.00
46836;BME280;32573;51.290;6.926;2022-12-11T12:17:09;99586.03;;;1.63;100.00
46836;BME280;32573;51.290;6.926;2022-12-11T12:19:46;99580.16;;;1.65;100.00
46836;BME280;32573;51.290;6.926;2022-12-11T12:22:31;99577.72;;;1.68;100.00
46836;BME280;32573;51.290;6.926;2022-12-11T12:25:14;99579.56;;;1.71;100.00
46836;BME280;32573;51.290;6.926;2022-12-11T12:27:49;99573.69;;;1.73;100.00
46836;BME280;32573;51.290;6.926;2022-12-11T12:30:21;99569.50;;;1.76;100.00
46836;BME280;32573;51.290;6.926;2022-12-11T12:33:02;99564.41;;;1.77;100.00
46836;BME280;32573;51.290;6.926;2022-12-11T12:35:35;99559.34;;;1.79;100.00
46836;BME280;32573;51.290;6.926;2022-12-11T12:38:09;99569.81;;;1.82;100.00
46836;BME280;32573;51.290;6.926;2022-12-11T12:40:52;99561.28;;;1.83;100.00
46836;BME280;32573;51.290;6.926;2022-12-11T12:43:34;99552.72;;;1.84;100.00
46836;BME280;32573;51.290;6.926;2022-12-11T12:46:12;99566.50;;;1.84;100.00
46836;BME280;32573;51.290;6.926;2022-12-11T12:48:44;99554.53;;;1.85;100.00
46836;BME280;32573;51.290;6.926;2022-12-11T12:51:13;99545.97;;;1.86;100.00
46836;BME280;32573;51.290;6.926;2022-12-11T12:53:48;99554.59;;;1.86;100.00
46836;BME280;32573;51.290;6.926;2022-12-11T12:56:23;99549.50;;;1.88;100.00
46836;BME280;32573;51.290;6.926;2022-12-11T12:58:55;99553.06;;;1.90;100.00
46836;BME280;32573;51.290;6.926;2022-12-11T13:01:26;99554.84;;;1.91;100.00
46836;BME280;32573;51.290;6.926;2022-12-11T13:03:56;99554.91;;;1.92;100.00
46836;BME280;32573;51.290;6.926;2022-12-11T13:06:30;99561.03;;;1.94;100.00
46836;BME280;32573;51.290;6.926;2022-12-11T13:09:14;99557.66;;;1.96;100.00
46836;BME280;32573;51.290;6.926;2022-12-11T13:11:45;99559.41;;;1.97;100.00
46836;BME280;32573;51.290;6.926;2022-12-11T13:14:26;99557.66;;;1.96;100.00
46836;BME280;32573;51.290;6.926;2022-12-11T13:17:23;99557.66;;;1.96;100.00
46836;BME280;32573;51.290;6.926;2022-12-11T13:20:12;99546.44;;;1.95;100.00
46836;BME280;32573;51.290;6.926;2022-12-11T13:22:49;99559.41;;;1.97;100.00
46836;BME280;32573;51.290;6.926;2022-12-11T13:25:23;99549.97;;;1.97;100.00